createdAt,value
2022-07-30T00:00:36.532Z,100119.50
2022-07-30T00:03:04.589Z,100121.16
2022-07-30T00:05:32.828Z,100124.41
2022-07-30T00:08:00.712Z,100123.28
2022-07-30T00:10:28.907Z,100118.75
2022-07-30T00:12:57.212Z,100117.25
2022-07-30T00:15:28.237Z,100122.41
2022-07-30T00:17:57.704Z,100116.31
2022-07-30T00:20:27.934Z,100117.91
2022-07-30T00:22:56.418Z,100118.91
2022-07-30T00:25:24.445Z,100112.28
2022-07-30T00:27:52.278Z,100113.78
2022-07-30T00:30:20.222Z,100115.59
2022-07-30T00:32:48.692Z,100116.28
2022-07-30T00:35:18.084Z,100120.84
2022-07-30T00:37:46.176Z,100111.88
2022-07-30T00:40:15.272Z,100116.97
2022-07-30T00:42:46.597Z,100111.13
2022-07-30T00:45:16.138Z,100099.88
2022-07-30T00:47:44.585Z,100101.75
2022-07-30T00:50:14.645Z,100100.72
2022-07-30T00:52:45.132Z,100090.09
2022-07-30T00:55:16.266Z,100094.22
2022-07-30T00:57:45.383Z,100096.13
2022-07-30T01:00:16.501Z,100084.13
2022-07-30T01:02:46.078Z,100091.91
2022-07-30T01:05:15.156Z,100073.97
2022-07-30T01:07:44.696Z,100076.44
2022-07-30T01:10:16.507Z,100078.22
2022-07-30T01:12:45.876Z,100075.81
2022-07-30T01:15:17.268Z,100081.72
2022-07-30T01:17:49.854Z,100077.97
2022-07-30T01:20:27.424Z,100082.25
2022-07-30T01:23:06.348Z,100078.81
2022-07-30T01:26:01.546Z,100072.38
2022-07-30T01:28:33.703Z,100072.72
2022-07-30T01:31:04.539Z,100073.31
2022-07-30T01:33:33.820Z,100078.94
2022-07-30T01:36:03.428Z,100082.38
2022-07-30T01:38:35.078Z,100088.19
2022-07-30T01:41:07.843Z,100094.22
2022-07-30T01:43:37.922Z,100097.56
2022-07-30T01:46:07.706Z,100097.81
2022-07-30T01:48:41.490Z,100097.66
2022-07-30T01:51:13.655Z,100101.25
2022-07-30T01:53:49.161Z,100101.22
2022-07-30T01:56:27.152Z,100098.56
2022-07-30T01:58:58.175Z,100113.06
2022-07-30T02:01:28.205Z,100121.56
2022-07-30T02:04:03.315Z,100113.56
2022-07-30T02:06:36.209Z,100117.44
2022-07-30T02:09:10.906Z,100117.44
2022-07-30T02:12:03.977Z,100124.38
2022-07-30T02:14:40.463Z,100130.25
2022-07-30T02:17:18.492Z,100139.63
2022-07-30T02:19:52.507Z,100142.06
2022-07-30T02:22:23.383Z,100139.81
2022-07-30T02:24:53.152Z,100130.69
2022-07-30T02:27:27.295Z,100131.94
2022-07-30T02:29:58.784Z,100142.34
2022-07-30T02:32:34.902Z,100131.28
2022-07-30T02:35:10.479Z,100132.25
2022-07-30T02:37:43.859Z,100133.94
2022-07-30T02:40:16.922Z,100130.50
2022-07-30T02:42:48.569Z,100130.66
2022-07-30T02:45:21.252Z,100140.44
2022-07-30T02:47:54.633Z,100137.72
2022-07-30T02:50:25.899Z,100134.28
2022-07-30T02:52:57.126Z,100145.91
2022-07-30T02:55:27.827Z,100144.66
2022-07-30T02:57:58.696Z,100149.19
2022-07-30T03:00:28.365Z,100150.72
2022-07-30T03:02:58.544Z,100157.06
2022-07-30T03:05:27.435Z,100155.41
2022-07-30T03:07:59.122Z,100151.28
2022-07-30T03:10:29.015Z,100149.91
2022-07-30T03:13:01.192Z,100151.25
2022-07-30T03:15:31.186Z,100155.44
2022-07-30T03:18:01.134Z,100154.59
2022-07-30T03:20:33.172Z,100161.47
2022-07-30T03:23:03.409Z,100159.69
2022-07-30T03:25:33.185Z,100160.81
2022-07-30T03:28:04.458Z,100163.69
2022-07-30T03:30:35.021Z,100167.56
2022-07-30T03:33:04.089Z,100170.91
2022-07-30T03:35:33.674Z,100166.19
2022-07-30T03:38:02.341Z,100171.69
2022-07-30T03:40:31.753Z,100163.69
2022-07-30T03:43:00.890Z,100166.59
2022-07-30T03:45:31.852Z,100163.41
2022-07-30T03:48:12.970Z,100166.69
2022-07-30T03:50:46.942Z,100171.63
2022-07-30T03:53:16.203Z,100167.31
2022-07-30T03:56:03.459Z,100170.72
2022-07-30T03:58:50.437Z,100164.94
2022-07-30T04:01:20.389Z,100166.22
2022-07-30T04:03:48.471Z,100169.66
2022-07-30T04:06:16.832Z,100172.72
2022-07-30T04:08:45.917Z,100170.81
2022-07-30T04:11:14.078Z,100173.00
2022-07-30T04:13:41.894Z,100171.78
2022-07-30T04:16:38.956Z,100178.25
2022-07-30T04:19:12.527Z,100181.47
2022-07-30T04:21:42.656Z,100184.00
2022-07-30T04:24:14.107Z,100182.34
2022-07-30T04:26:42.852Z,100186.63
2022-07-30T04:29:13.727Z,100196.31
2022-07-30T04:31:42.621Z,100199.31
2022-07-30T04:34:32.003Z,100200.16
2022-07-30T04:37:00.866Z,100199.63
2022-07-30T04:39:30.432Z,100208.19
2022-07-30T04:41:59.818Z,100215.63
2022-07-30T04:44:48.526Z,100214.72
2022-07-30T04:47:27.159Z,100211.91
2022-07-30T04:50:23.538Z,100225.44
2022-07-30T04:52:53.562Z,100229.06
2022-07-30T04:55:28.332Z,100234.91
2022-07-30T04:57:58.708Z,100235.91
2022-07-30T05:00:32.245Z,100236.66
2022-07-30T05:03:04.743Z,100240.53
2022-07-30T05:05:39.882Z,100239.31
2022-07-30T05:08:09.391Z,100239.66
2022-07-30T05:10:39.718Z,100234.66
2022-07-30T05:13:13.159Z,100240.38
2022-07-30T05:15:44.813Z,100247.44
2022-07-30T05:18:14.624Z,100244.81
2022-07-30T05:20:46.224Z,100246.28
2022-07-30T05:23:26.753Z,100244.00
2022-07-30T05:26:20.828Z,100245.72
2022-07-30T05:28:56.726Z,100255.34
2022-07-30T05:31:40.085Z,100256.88
2022-07-30T05:34:08.501Z,100257.63
2022-07-30T05:36:45.766Z,100265.06
2022-07-30T05:39:16.866Z,100257.06
2022-07-30T05:42:05.114Z,100261.25
2022-07-30T05:44:40.546Z,100263.91
2022-07-30T05:47:08.802Z,100266.06
2022-07-30T05:49:38.912Z,100261.75
2022-07-30T05:52:12.610Z,100263.81
2022-07-30T05:54:41.260Z,100269.31
2022-07-30T05:57:27.756Z,100273.16
2022-07-30T05:59:55.591Z,100262.94
2022-07-30T06:02:43.044Z,100266.59
2022-07-30T06:05:30.716Z,100267.06
2022-07-30T06:08:03.274Z,100274.66
2022-07-30T06:10:32.844Z,100262.91
2022-07-30T06:13:01.344Z,100271.06
2022-07-30T06:15:29.553Z,100273.91
2022-07-30T06:18:01.689Z,100274.84
2022-07-30T06:20:52.118Z,100274.81
2022-07-30T06:23:45.395Z,100274.22
2022-07-30T06:26:18.628Z,100274.25
2022-07-30T06:28:47.155Z,100274.91
2022-07-30T06:31:20.255Z,100282.06
2022-07-30T06:33:48.478Z,100287.78
2022-07-30T06:36:16.454Z,100280.31
2022-07-30T06:38:54.465Z,100281.47
2022-07-30T06:41:34.452Z,100283.09
2022-07-30T06:44:02.269Z,100292.75
2022-07-30T06:46:53.480Z,100294.56
2022-07-30T06:49:25.987Z,100299.22
2022-07-30T06:51:55.387Z,100298.50
2022-07-30T06:54:25.144Z,100296.44
2022-07-30T06:57:13.477Z,100301.69
2022-07-30T06:59:56.250Z,100308.44
2022-07-30T07:02:32.637Z,100298.63
2022-07-30T07:05:23.827Z,100298.56
2022-07-30T07:07:59.280Z,100305.53
2022-07-30T07:10:37.239Z,100293.72
2022-07-30T07:13:14.231Z,100306.97
2022-07-30T07:15:42.870Z,100309.84
2022-07-30T07:18:16.524Z,100303.00
2022-07-30T07:21:03.270Z,100310.75
2022-07-30T07:23:41.593Z,100309.63
2022-07-30T07:26:30.765Z,100305.88
2022-07-30T07:29:02.208Z,100307.94
2022-07-30T07:32:06.081Z,100309.19
2022-07-30T07:34:22.147Z,100310.25
2022-07-30T07:36:50.947Z,100303.53
2022-07-30T07:39:18.813Z,100311.50
2022-07-30T07:41:50.346Z,100304.28
2022-07-30T07:44:24.076Z,100293.81
2022-07-30T07:46:52.471Z,100292.81
2022-07-30T07:49:21.174Z,100299.72
2022-07-30T07:51:52.881Z,100296.81
2022-07-30T07:54:23.084Z,100295.16
2022-07-30T07:56:57.659Z,100296.69
2022-07-30T07:59:41.526Z,100306.13
2022-07-30T08:02:17.177Z,100302.09
2022-07-30T08:05:15.528Z,100305.31
2022-07-30T08:07:50.954Z,100298.91
2022-07-30T08:10:37.694Z,100298.53
2022-07-30T08:13:51.791Z,100304.66
2022-07-30T08:16:32.056Z,100292.19
2022-07-30T08:19:19.217Z,100301.03
2022-07-30T08:21:59.731Z,100294.28
2022-07-30T08:24:31.896Z,100301.03
2022-07-30T08:27:00.502Z,100301.84
2022-07-30T08:29:30.828Z,100296.81
2022-07-30T08:31:59.306Z,100309.84
2022-07-30T08:34:29.386Z,100307.66
2022-07-30T08:36:59.007Z,100304.97
2022-07-30T08:39:27.231Z,100310.31
2022-07-30T08:41:55.495Z,100310.22
2022-07-30T08:44:24.989Z,100309.88
2022-07-30T08:46:57.048Z,100317.00
2022-07-30T08:49:42.671Z,100306.28
2022-07-30T08:52:12.396Z,100307.47
2022-07-30T08:54:45.026Z,100302.59
2022-07-30T08:57:13.877Z,100299.00
2022-07-30T08:59:59.628Z,100301.84
2022-07-30T09:02:34.323Z,100298.41
2022-07-30T09:05:08.228Z,100308.09
2022-07-30T09:07:37.976Z,100298.63
2022-07-30T09:10:11.701Z,100311.09
2022-07-30T09:12:43.361Z,100304.22
2022-07-30T09:15:14.239Z,100307.66
2022-07-30T09:17:52.978Z,100306.94
2022-07-30T09:20:24.752Z,100313.97
2022-07-30T09:22:56.113Z,100304.22
2022-07-30T09:25:48.464Z,100308.03
2022-07-30T09:28:35.925Z,100307.16
2022-07-30T09:31:17.473Z,100301.59
2022-07-30T09:34:25.162Z,100299.88
2022-07-30T09:37:18.374Z,100313.06
2022-07-30T09:40:13.070Z,100297.91
2022-07-30T09:43:06.953Z,100301.28
2022-07-30T09:45:36.757Z,100303.16
2022-07-30T09:48:22.019Z,100299.19
2022-07-30T09:50:52.201Z,100303.41
2022-07-30T09:53:22.619Z,100296.72
2022-07-30T09:55:52.290Z,100305.94
2022-07-30T09:58:27.183Z,100297.81
2022-07-30T10:00:59.101Z,100303.38
2022-07-30T10:03:49.102Z,100296.22
2022-07-30T10:06:42.002Z,100293.91
2022-07-30T10:09:27.219Z,100296.75
2022-07-30T10:11:57.406Z,100300.94
2022-07-30T10:14:32.269Z,100291.78
2022-07-30T10:17:03.271Z,100290.25
2022-07-30T10:19:40.468Z,100302.63
2022-07-30T10:22:30.297Z,100289.66
2022-07-30T10:25:20.932Z,100291.50
2022-07-30T10:28:03.614Z,100297.63
2022-07-30T10:30:33.889Z,100288.56
2022-07-30T10:33:03.298Z,100290.50
2022-07-30T10:35:38.156Z,100277.56
2022-07-30T10:38:13.380Z,100286.41
2022-07-30T10:40:51.358Z,100287.50
2022-07-30T10:43:57.783Z,100297.25
2022-07-30T10:46:38.953Z,100289.41
2022-07-30T10:49:18.514Z,100289.59
2022-07-30T10:51:49.365Z,100288.44
2022-07-30T10:54:39.458Z,100276.19
2022-07-30T10:57:15.013Z,100274.59
2022-07-30T11:00:15.131Z,100270.59
2022-07-30T11:03:15.170Z,100266.22
2022-07-30T11:05:46.000Z,100261.53
2022-07-30T11:08:35.965Z,100265.06
2022-07-30T11:12:00.064Z,100265.22
2022-07-30T11:14:17.122Z,100266.16
2022-07-30T11:17:01.512Z,100265.47
2022-07-30T11:19:55.373Z,100269.19
2022-07-30T11:22:31.569Z,100254.03
2022-07-30T11:25:04.422Z,100258.72
2022-07-30T11:27:46.062Z,100268.91
2022-07-30T11:30:33.934Z,100260.81
2022-07-30T11:33:32.214Z,100269.75
2022-07-30T11:36:12.021Z,100271.13
2022-07-30T11:38:53.224Z,100280.81
2022-07-30T11:41:23.473Z,100273.22
2022-07-30T11:44:24.803Z,100269.56
2022-07-30T11:46:54.547Z,100272.72
2022-07-30T11:49:22.951Z,100254.69
2022-07-30T11:51:51.794Z,100261.94
2022-07-30T11:54:20.193Z,100261.25
2022-07-30T11:57:02.093Z,100267.75
2022-07-30T11:59:32.479Z,100256.91
2022-07-30T12:02:02.334Z,100270.25
2022-07-30T12:04:31.515Z,100269.13
2022-07-30T12:07:00.146Z,100257.41
2022-07-30T12:09:29.639Z,100250.00
2022-07-30T12:11:58.504Z,100258.06
2022-07-30T12:14:39.078Z,100250.72
2022-07-30T12:17:14.899Z,100258.31
2022-07-30T12:19:48.212Z,100246.69
2022-07-30T12:22:16.760Z,100246.03
2022-07-30T12:24:44.810Z,100251.06
2022-07-30T12:27:14.117Z,100253.88
2022-07-30T12:29:43.868Z,100250.41
2022-07-30T12:32:14.053Z,100253.38
2022-07-30T12:34:55.897Z,100243.84
2022-07-30T12:37:23.743Z,100239.28
2022-07-30T12:40:06.458Z,100247.53
2022-07-30T12:42:34.608Z,100245.59
2022-07-30T12:45:03.052Z,100245.22
2022-07-30T12:47:35.426Z,100240.09
2022-07-30T12:50:17.047Z,100247.97
2022-07-30T12:52:50.027Z,100237.16
2022-07-30T12:55:22.053Z,100225.34
2022-07-30T12:58:01.831Z,100233.66
2022-07-30T13:00:47.161Z,100222.00
2022-07-30T13:03:27.603Z,100237.47
2022-07-30T13:06:04.547Z,100229.06
2022-07-30T13:08:59.682Z,100225.94
2022-07-30T13:11:38.011Z,100222.03
2022-07-30T13:14:09.008Z,100225.59
2022-07-30T13:16:38.033Z,100218.16
2022-07-30T13:19:09.048Z,100211.84
2022-07-30T13:21:37.207Z,100212.84
2022-07-30T13:24:06.831Z,100213.81
2022-07-30T13:26:37.723Z,100225.28
2022-07-30T13:29:06.004Z,100209.94
2022-07-30T13:31:43.259Z,100208.34
2022-07-30T13:34:13.712Z,100201.88
2022-07-30T13:36:44.869Z,100212.47
2022-07-30T13:39:14.709Z,100212.53
2022-07-30T13:41:44.239Z,100207.44
2022-07-30T13:44:12.388Z,100208.34
2022-07-30T13:46:41.469Z,100219.16
2022-07-30T13:49:10.932Z,100200.94
2022-07-30T13:51:42.191Z,100209.63
2022-07-30T13:54:10.667Z,100206.97
2022-07-30T13:56:42.383Z,100203.72
2022-07-30T13:59:11.919Z,100204.06
2022-07-30T14:01:40.381Z,100200.81
2022-07-30T14:04:08.641Z,100197.16
2022-07-30T14:06:37.058Z,100199.50
2022-07-30T14:09:06.942Z,100177.84
2022-07-30T14:11:35.508Z,100196.22
2022-07-30T14:14:03.520Z,100195.34
2022-07-30T14:16:46.852Z,100192.75
2022-07-30T14:19:23.599Z,100190.19
2022-07-30T14:21:54.026Z,100186.31
2022-07-30T14:24:24.421Z,100182.72
2022-07-30T14:26:58.935Z,100183.38
2022-07-30T14:29:27.674Z,100183.22
2022-07-30T14:31:56.210Z,100174.59
2022-07-30T14:34:25.244Z,100183.41
2022-07-30T14:36:53.447Z,100181.38
2022-07-30T14:39:23.430Z,100189.41
2022-07-30T14:41:54.062Z,100181.34
2022-07-30T14:44:24.797Z,100185.69
2022-07-30T14:46:53.703Z,100179.94
2022-07-30T14:49:22.682Z,100188.50
2022-07-30T14:51:52.463Z,100189.72
2022-07-30T14:54:21.087Z,100176.56
2022-07-30T14:56:54.830Z,100183.84
2022-07-30T14:59:26.780Z,100189.69
2022-07-30T15:01:55.463Z,100192.81
2022-07-30T15:04:24.794Z,100179.00
2022-07-30T15:06:52.827Z,100188.22
2022-07-30T15:09:21.241Z,100183.09
2022-07-30T15:12:08.785Z,100186.91
2022-07-30T15:14:39.886Z,100177.09
2022-07-30T15:17:08.573Z,100186.19
2022-07-30T15:19:36.711Z,100190.84
2022-07-30T15:22:08.368Z,100186.38
2022-07-30T15:24:38.794Z,100180.28
2022-07-30T15:27:08.769Z,100178.63
2022-07-30T15:29:38.143Z,100177.28
2022-07-30T15:32:08.617Z,100173.97
2022-07-30T15:34:40.430Z,100172.81
2022-07-30T15:37:09.853Z,100170.59
2022-07-30T15:39:38.232Z,100174.22
2022-07-30T15:42:06.948Z,100180.66
2022-07-30T15:44:42.248Z,100180.66
2022-07-30T15:47:16.436Z,100193.66
2022-07-30T15:49:44.759Z,100192.75
2022-07-30T15:52:13.231Z,100193.94
2022-07-30T15:54:41.297Z,100185.91
2022-07-30T15:57:09.380Z,100193.28
2022-07-30T15:59:38.868Z,100193.00
2022-07-30T16:02:07.162Z,100191.03
2022-07-30T16:04:36.091Z,100189.59
2022-07-30T16:07:04.907Z,100202.59
2022-07-30T16:09:33.313Z,100178.63
2022-07-30T16:12:02.161Z,100183.72
2022-07-30T16:14:30.621Z,100184.16
2022-07-30T16:17:00.278Z,100185.22
2022-07-30T16:19:28.548Z,100183.88
2022-07-30T16:21:57.136Z,100185.50
2022-07-30T16:24:26.775Z,100176.41
2022-07-30T16:26:55.362Z,100180.44
2022-07-30T16:29:23.495Z,100181.59
2022-07-30T16:31:51.376Z,100181.47
2022-07-30T16:34:22.898Z,100183.72
2022-07-30T16:36:54.941Z,100180.16
2022-07-30T16:39:23.485Z,100172.22
2022-07-30T16:41:52.954Z,100173.09
2022-07-30T16:44:21.569Z,100167.28
2022-07-30T16:46:50.163Z,100175.94
2022-07-30T16:49:18.487Z,100176.81
2022-07-30T16:51:48.548Z,100168.84
2022-07-30T16:54:16.938Z,100170.13
2022-07-30T16:56:45.390Z,100173.25
2022-07-30T16:59:14.548Z,100174.91
2022-07-30T17:01:42.921Z,100164.53
2022-07-30T17:04:11.280Z,100158.41
2022-07-30T17:06:40.181Z,100167.81
2022-07-30T17:09:16.051Z,100171.78
2022-07-30T17:11:47.464Z,100164.81
2022-07-30T17:14:22.400Z,100169.97
2022-07-30T17:16:50.947Z,100177.84
2022-07-30T17:19:19.877Z,100179.38
2022-07-30T17:21:48.170Z,100177.31
2022-07-30T17:24:17.759Z,100177.41
2022-07-30T17:26:46.881Z,100189.78
2022-07-30T17:29:16.393Z,100186.78
2022-07-30T17:31:45.712Z,100188.69
2022-07-30T17:34:20.347Z,100189.22
2022-07-30T17:36:52.338Z,100189.56
2022-07-30T17:40:24.780Z,100198.84
2022-07-30T17:42:12.412Z,100195.13
2022-07-30T17:44:42.058Z,100188.78
2022-07-30T17:47:16.239Z,100192.59
2022-07-30T17:49:44.884Z,100189.22
2022-07-30T17:52:13.183Z,100193.47
2022-07-30T17:54:43.148Z,100197.13
2022-07-30T17:57:11.120Z,100197.84
2022-07-30T17:59:39.277Z,100203.34
2022-07-30T18:02:07.693Z,100197.19
2022-07-30T18:04:36.346Z,100209.69
2022-07-30T18:07:05.223Z,100201.28
2022-07-30T18:09:36.221Z,100202.22
2022-07-30T18:12:09.624Z,100199.94
2022-07-30T18:14:38.728Z,100209.09
2022-07-30T18:17:09.992Z,100206.50
2022-07-30T18:19:41.082Z,100202.97
2022-07-30T18:22:09.350Z,100209.88
2022-07-30T18:24:40.245Z,100205.97
2022-07-30T18:27:12.070Z,100201.34
2022-07-30T18:29:40.282Z,100215.00
2022-07-30T18:32:08.698Z,100221.44
2022-07-30T18:34:36.797Z,100222.53
2022-07-30T18:37:05.650Z,100220.41
2022-07-30T18:39:33.628Z,100217.94
2022-07-30T18:42:02.331Z,100224.56
2022-07-30T18:44:32.404Z,100217.13
2022-07-30T18:47:00.381Z,100224.88
2022-07-30T18:49:37.610Z,100230.13
2022-07-30T18:52:07.429Z,100221.06
2022-07-30T18:54:38.340Z,100231.84
2022-07-30T18:57:10.052Z,100232.38
2022-07-30T18:59:43.072Z,100238.53
2022-07-30T19:02:11.153Z,100242.63
2022-07-30T19:04:42.030Z,100239.38
2022-07-30T19:07:10.106Z,100239.03
2022-07-30T19:09:38.359Z,100240.25
2022-07-30T19:12:07.148Z,100254.06
2022-07-30T19:14:35.483Z,100256.16
2022-07-30T19:17:14.123Z,100253.41
2022-07-30T19:19:43.803Z,100266.03
2022-07-30T19:22:12.091Z,100257.88
2022-07-30T19:24:40.434Z,100264.28
2022-07-30T19:27:13.684Z,100269.22
2022-07-30T19:29:43.604Z,100267.41
2022-07-30T19:32:13.015Z,100276.25
2022-07-30T19:34:43.672Z,100277.38
2022-07-30T19:37:12.125Z,100273.06
2022-07-30T19:40:05.418Z,100275.72
2022-07-30T19:42:28.069Z,100279.94
2022-07-30T19:44:58.575Z,100279.94
2022-07-30T19:47:35.329Z,100282.84
2022-07-30T19:50:10.041Z,100291.34
2022-07-30T19:52:38.344Z,100289.94
2022-07-30T19:55:30.578Z,100296.06
2022-07-30T19:57:56.117Z,100296.22
2022-07-30T20:00:25.468Z,100305.19
2022-07-30T20:02:54.965Z,100302.22
2022-07-30T20:05:24.925Z,100308.91
2022-07-30T20:07:53.109Z,100304.88
2022-07-30T20:10:21.686Z,100301.44
2022-07-30T20:12:50.982Z,100305.28
2022-07-30T20:15:20.568Z,100299.63
2022-07-30T20:17:48.737Z,100307.59
2022-07-30T20:20:17.997Z,100307.16
2022-07-30T20:22:54.218Z,100309.81
2022-07-30T20:25:22.212Z,100304.63
2022-07-30T20:27:50.313Z,100310.94
2022-07-30T20:30:25.221Z,100316.75
2022-07-30T20:32:53.478Z,100315.88
2022-07-30T20:35:23.161Z,100312.72
2022-07-30T20:37:55.459Z,100317.88
2022-07-30T20:40:26.757Z,100309.66
2022-07-30T20:42:55.453Z,100317.19
2022-07-30T20:45:24.952Z,100316.69
2022-07-30T20:47:56.597Z,100316.16
2022-07-30T20:50:30.202Z,100317.13
2022-07-30T20:52:59.569Z,100313.34
2022-07-30T20:55:27.827Z,100314.88
2022-07-30T20:58:12.519Z,100315.72
2022-07-30T21:00:49.550Z,100313.72
2022-07-30T21:03:21.274Z,100316.41
2022-07-30T21:05:52.524Z,100307.97
2022-07-30T21:08:25.185Z,100316.75
2022-07-30T21:10:55.439Z,100311.47
2022-07-30T21:13:24.910Z,100311.81
2022-07-30T21:16:03.087Z,100314.25
2022-07-30T21:18:32.997Z,100313.13
2022-07-30T21:21:04.857Z,100313.47
2022-07-30T21:23:34.025Z,100306.34
2022-07-30T21:26:05.796Z,100306.91
2022-07-30T21:28:38.734Z,100320.13
2022-07-30T21:31:08.803Z,100308.72
2022-07-30T21:33:37.556Z,100317.50
2022-07-30T21:36:10.708Z,100316.84
2022-07-30T21:38:41.890Z,100327.09
2022-07-30T21:41:14.175Z,100326.41
2022-07-30T21:43:43.595Z,100325.25
2022-07-30T21:46:12.344Z,100321.28
2022-07-30T21:48:40.156Z,100326.44
2022-07-30T21:51:11.276Z,100329.41
2022-07-30T21:53:45.169Z,100321.81
2022-07-30T21:56:15.816Z,100324.59
2022-07-30T21:58:44.272Z,100321.63
2022-07-30T22:01:17.942Z,100332.22
2022-07-30T22:04:03.129Z,100337.34
2022-07-30T22:06:37.929Z,100330.53
2022-07-30T22:09:19.828Z,100333.53
2022-07-30T22:11:56.951Z,100339.31
2022-07-30T22:14:30.184Z,100339.97
2022-07-30T22:16:59.619Z,100335.84
2022-07-30T22:19:27.850Z,100334.03
2022-07-30T22:21:57.580Z,100335.84
2022-07-30T22:24:30.243Z,100342.78
2022-07-30T22:27:01.499Z,100336.69
2022-07-30T22:29:34.126Z,100337.94
2022-07-30T22:32:04.369Z,100334.63
2022-07-30T22:34:32.715Z,100333.41
2022-07-30T22:37:02.127Z,100339.47
2022-07-30T22:39:32.015Z,100338.97
2022-07-30T22:42:18.384Z,100335.63
2022-07-30T22:44:47.542Z,100332.88
2022-07-30T22:47:21.020Z,100336.84
2022-07-30T22:49:51.972Z,100322.13
2022-07-30T22:52:28.035Z,100330.16
2022-07-30T22:55:08.696Z,100334.69
2022-07-30T22:57:45.394Z,100329.94
2022-07-30T23:00:27.126Z,100338.88
2022-07-30T23:02:58.234Z,100338.91
2022-07-30T23:05:26.906Z,100336.53
2022-07-30T23:07:56.448Z,100340.53
2022-07-30T23:10:27.605Z,100341.59
2022-07-30T23:12:56.646Z,100340.91
2022-07-30T23:15:24.912Z,100333.69
2022-07-30T23:17:53.276Z,100331.88
2022-07-30T23:20:24.820Z,100326.63
2022-07-30T23:22:55.588Z,100326.59
2022-07-30T23:25:25.182Z,100326.22
2022-07-30T23:28:03.107Z,100327.06
2022-07-30T23:30:33.851Z,100326.41
2022-07-30T23:33:02.652Z,100329.44
2022-07-30T23:35:31.191Z,100333.09
2022-07-30T23:38:00.269Z,100325.53
2022-07-30T23:40:29.871Z,100328.34
2022-07-30T23:42:58.211Z,100326.28
2022-07-30T23:45:26.101Z,100319.31
2022-07-30T23:48:02.573Z,100325.78
2022-07-30T23:50:32.501Z,100325.78
2022-07-30T23:53:01.263Z,100325.53
2022-07-30T23:55:32.253Z,100326.03
2022-07-30T23:58:03.287Z,100324.22
